createdAt,value
2019-04-10T00:00:41.304Z,30.08
2019-04-10T00:03:08.271Z,29.50
2019-04-10T00:05:34.190Z,31.07
2019-04-10T00:08:00.001Z,30.60
2019-04-10T00:10:25.821Z,30.20
2019-04-10T00:12:52.000Z,30.60
2019-04-10T00:15:18.800Z,32.17
2019-04-10T00:17:45.133Z,31.40
2019-04-10T00:20:11.928Z,31.85
2019-04-10T00:22:38.710Z,29.75
2019-04-10T00:25:05.020Z,31.05
2019-04-10T00:27:31.119Z,28.75
2019-04-10T00:29:56.930Z,31.82
2019-04-10T00:32:23.724Z,28.43
2019-04-10T00:34:49.766Z,30.35
2019-04-10T00:37:23.863Z,31.60
2019-04-10T00:39:44.498Z,28.87
2019-04-10T00:42:10.508Z,30.45
2019-04-10T00:44:37.447Z,32.42
2019-04-10T00:47:04.421Z,31.82
2019-04-10T00:49:31.440Z,31.20
2019-04-10T00:51:57.558Z,31.87
2019-04-10T00:54:23.750Z,30.85
2019-04-10T00:56:50.607Z,32.08
2019-04-10T00:59:16.477Z,31.48
2019-04-10T01:01:43.637Z,32.07
2019-04-10T01:04:10.560Z,32.58
2019-04-10T01:06:36.487Z,31.37
2019-04-10T01:09:04.899Z,31.87
2019-04-10T01:11:30.813Z,30.92
2019-04-10T01:13:57.056Z,33.27
2019-04-10T01:16:23.244Z,33.18
2019-04-10T01:18:49.009Z,29.82
2019-04-10T01:21:14.848Z,31.87
2019-04-10T01:23:41.407Z,32.83
2019-04-10T01:26:07.564Z,31.52
2019-04-10T01:28:33.405Z,31.52
2019-04-10T01:30:59.214Z,31.80
2019-04-10T01:33:25.047Z,32.53
2019-04-10T01:35:54.319Z,34.77
2019-04-10T01:38:20.848Z,32.35
2019-04-10T01:40:47.792Z,34.43
2019-04-10T01:43:17.543Z,34.38
2019-04-10T01:45:41.812Z,35.75
2019-04-10T01:48:07.978Z,33.73
2019-04-10T01:50:34.673Z,36.95
2019-04-10T01:53:01.569Z,35.30
2019-04-10T01:55:30.275Z,36.83
2019-04-10T01:57:56.805Z,35.23
2019-04-10T02:00:25.681Z,37.70
2019-04-10T02:02:52.071Z,36.00
2019-04-10T02:05:18.716Z,38.10
2019-04-10T02:07:48.692Z,40.28
2019-04-10T02:10:12.745Z,42.35
2019-04-10T02:12:38.937Z,40.30
2019-04-10T02:15:05.073Z,43.08
2019-04-10T02:17:30.895Z,43.52
2019-04-10T02:19:56.865Z,45.57
2019-04-10T02:22:22.971Z,43.40
2019-04-10T02:24:49.379Z,45.17
2019-04-10T02:27:16.247Z,45.30
2019-04-10T02:29:42.371Z,44.90
2019-04-10T02:32:08.181Z,43.98
2019-04-10T02:34:34.441Z,44.07
2019-04-10T02:37:00.713Z,44.10
2019-04-10T02:39:34.078Z,46.15
2019-04-10T02:41:56.047Z,47.00
2019-04-10T02:44:22.979Z,46.50
2019-04-10T02:46:49.763Z,47.50
2019-04-10T02:49:18.482Z,48.15
2019-04-10T02:51:45.328Z,50.80
2019-04-10T02:54:11.942Z,50.35
2019-04-10T02:56:39.197Z,51.70
2019-04-10T02:59:05.169Z,52.98
2019-04-10T03:01:31.626Z,52.38
2019-04-10T03:03:57.465Z,54.20
2019-04-10T03:06:23.658Z,53.80
2019-04-10T03:09:03.444Z,54.93
2019-04-10T03:11:19.577Z,57.48
2019-04-10T03:13:45.388Z,57.80
2019-04-10T03:16:13.995Z,57.08
2019-04-10T03:18:41.024Z,55.10
2019-04-10T03:21:07.302Z,55.90
2019-04-10T03:23:33.633Z,58.17
2019-04-10T03:25:59.742Z,54.50
2019-04-10T03:28:25.589Z,54.80
2019-04-10T03:30:53.937Z,55.50
2019-04-10T03:33:29.684Z,55.50
2019-04-10T03:35:54.915Z,56.18
2019-04-10T03:38:21.685Z,57.78
2019-04-10T03:40:48.021Z,55.67
2019-04-10T03:43:14.037Z,59.83
2019-04-10T03:45:41.010Z,56.73
2019-04-10T03:48:08.427Z,55.48
2019-04-10T03:50:34.317Z,61.98
2019-04-10T03:53:00.365Z,57.40
2019-04-10T03:55:27.104Z,55.60
2019-04-10T03:57:53.350Z,58.87
2019-04-10T04:00:20.954Z,54.50
2019-04-10T04:02:46.899Z,54.75
2019-04-10T04:05:12.997Z,50.40
2019-04-10T04:07:38.935Z,52.48
2019-04-10T04:10:05.142Z,53.27
2019-04-10T04:12:30.918Z,55.10
2019-04-10T04:14:57.052Z,56.23
2019-04-10T04:17:24.138Z,54.53
2019-04-10T04:19:50.471Z,57.30
2019-04-10T04:22:16.762Z,56.25
2019-04-10T04:24:46.117Z,54.35
2019-04-10T04:27:13.165Z,57.13
2019-04-10T04:29:39.236Z,55.73
2019-04-10T04:32:05.301Z,56.68
2019-04-10T04:34:34.704Z,56.37
2019-04-10T04:37:00.840Z,57.70
2019-04-10T04:39:30.518Z,56.85
2019-04-10T04:41:58.719Z,56.00
2019-04-10T04:44:24.680Z,57.38
2019-04-10T04:46:50.675Z,55.97
2019-04-10T04:49:16.518Z,55.10
2019-04-10T04:51:42.295Z,54.23
2019-04-10T04:54:08.696Z,52.30
2019-04-10T04:56:37.540Z,53.17
2019-04-10T04:59:03.667Z,56.58
2019-04-10T05:01:29.669Z,54.42
2019-04-10T05:03:55.587Z,53.75
2019-04-10T05:06:24.415Z,55.80
2019-04-10T05:08:50.662Z,54.20
2019-04-10T05:11:22.349Z,53.28
2019-04-10T05:13:48.985Z,53.98
2019-04-10T05:16:14.914Z,54.60
2019-04-10T05:18:40.746Z,53.77
2019-04-10T05:21:10.600Z,53.90
2019-04-10T05:23:36.808Z,54.50
2019-04-10T05:26:02.781Z,52.48
2019-04-10T05:28:29.969Z,56.00
2019-04-10T05:30:56.887Z,54.90
2019-04-10T05:33:22.734Z,55.75
2019-04-10T05:35:48.803Z,51.50
2019-04-10T05:38:15.040Z,51.88
2019-04-10T05:40:40.855Z,54.03
2019-04-10T05:43:11.553Z,54.40
2019-04-10T05:45:37.978Z,51.88
2019-04-10T05:48:07.135Z,51.73
2019-04-10T05:50:33.218Z,53.40
2019-04-10T05:53:00.075Z,55.10
2019-04-10T05:55:26.663Z,53.10
2019-04-10T05:57:55.254Z,52.62
2019-04-10T06:00:22.909Z,52.38
2019-04-10T06:02:48.898Z,50.45
2019-04-10T06:05:16.121Z,52.70
2019-04-10T06:07:42.039Z,49.18
2019-04-10T06:10:10.267Z,49.70
2019-04-10T06:12:36.153Z,51.42
2019-04-10T06:15:04.503Z,54.63
2019-04-10T06:17:30.340Z,49.00
2019-04-10T06:19:56.693Z,51.60
2019-04-10T06:22:22.902Z,48.68
2019-04-10T06:24:52.237Z,47.00
2019-04-10T06:27:18.522Z,50.55
2019-04-10T06:29:45.003Z,50.35
2019-04-10T06:32:11.966Z,49.85
2019-04-10T06:34:40.909Z,49.47
2019-04-10T06:37:08.012Z,50.85
2019-04-10T06:39:35.136Z,49.30
2019-04-10T06:42:02.373Z,49.23
2019-04-10T06:44:28.433Z,49.27
2019-04-10T06:46:55.010Z,49.37
2019-04-10T06:49:21.094Z,45.52
2019-04-10T06:51:49.991Z,46.95
2019-04-10T06:54:16.433Z,45.33
2019-04-10T06:56:43.026Z,46.95
2019-04-10T06:59:09.328Z,44.88
2019-04-10T07:01:45.603Z,46.42
2019-04-10T07:04:07.411Z,45.45
2019-04-10T07:06:47.234Z,46.53
2019-04-10T07:08:59.170Z,45.45
2019-04-10T07:11:29.172Z,47.48
2019-04-10T07:13:53.871Z,45.55
2019-04-10T07:16:20.594Z,46.77
2019-04-10T07:18:49.013Z,43.37
2019-04-10T07:21:14.741Z,43.17
2019-04-10T07:23:40.788Z,45.50
2019-04-10T07:26:06.668Z,43.28
2019-04-10T07:28:33.547Z,46.00
2019-04-10T07:31:04.990Z,44.33
2019-04-10T07:33:28.791Z,42.58
2019-04-10T07:35:56.528Z,40.75
2019-04-10T07:38:22.749Z,39.40
2019-04-10T07:40:49.136Z,39.95
2019-04-10T07:43:15.267Z,40.38
2019-04-10T07:45:41.162Z,41.77
2019-04-10T07:48:10.782Z,39.27
2019-04-10T07:50:37.131Z,39.27
2019-04-10T07:53:03.269Z,38.88
2019-04-10T07:55:29.357Z,37.63
2019-04-10T07:57:55.409Z,37.75
2019-04-10T08:00:25.265Z,38.35
2019-04-10T08:02:51.586Z,38.53
2019-04-10T08:05:17.436Z,39.17
2019-04-10T08:07:43.246Z,36.40
2019-04-10T08:10:12.132Z,38.43
2019-04-10T08:12:46.036Z,39.25
2019-04-10T08:15:06.950Z,38.92
2019-04-10T08:17:32.864Z,38.60
2019-04-10T08:20:01.764Z,39.80
2019-04-10T08:22:28.687Z,37.35
2019-04-10T08:24:58.020Z,40.23
2019-04-10T08:27:23.883Z,36.98
2019-04-10T08:29:50.615Z,35.73
2019-04-10T08:32:16.779Z,36.93
2019-04-10T08:34:42.840Z,39.30
2019-04-10T08:37:08.755Z,37.88
2019-04-10T08:39:41.217Z,39.10
2019-04-10T08:42:03.422Z,37.63
2019-04-10T08:44:29.886Z,36.77
2019-04-10T08:47:00.111Z,38.98
2019-04-10T08:49:25.950Z,35.15
2019-04-10T08:51:52.196Z,39.30
2019-04-10T08:54:18.504Z,38.83
2019-04-10T08:56:46.978Z,37.30
2019-04-10T08:59:13.784Z,34.67
2019-04-10T09:01:43.010Z,36.05
2019-04-10T09:04:09.046Z,36.80
2019-04-10T09:06:35.630Z,36.25
2019-04-10T09:09:01.462Z,35.28
2019-04-10T09:11:29.726Z,39.17
2019-04-10T09:13:55.028Z,38.78
2019-04-10T09:16:20.821Z,39.13
2019-04-10T09:18:49.537Z,34.97
2019-04-10T09:21:15.676Z,38.17
2019-04-10T09:23:48.270Z,38.00
2019-04-10T09:26:09.214Z,37.55
2019-04-10T09:28:36.701Z,37.77
2019-04-10T09:31:02.872Z,38.55
2019-04-10T09:33:32.325Z,37.00
2019-04-10T09:35:58.668Z,35.73
2019-04-10T09:38:26.456Z,37.30
2019-04-10T09:40:53.284Z,38.20
2019-04-10T09:43:19.359Z,36.42
2019-04-10T09:45:45.937Z,34.47
2019-04-10T09:48:12.803Z,35.28
2019-04-10T09:50:39.588Z,37.55
2019-04-10T09:53:05.725Z,35.30
2019-04-10T09:55:34.353Z,38.13
2019-04-10T09:58:00.263Z,39.13
2019-04-10T10:00:29.948Z,36.50
2019-04-10T10:02:56.080Z,36.95
2019-04-10T10:05:22.412Z,34.83
2019-04-10T10:07:48.722Z,37.00
2019-04-10T10:10:17.524Z,36.65
2019-04-10T10:12:43.316Z,36.85
2019-04-10T10:15:13.357Z,37.80
2019-04-10T10:17:39.343Z,38.02
2019-04-10T10:20:06.222Z,34.63
2019-04-10T10:22:34.037Z,33.23
2019-04-10T10:24:59.885Z,35.48
2019-04-10T10:27:26.792Z,33.33
2019-04-10T10:29:53.516Z,34.13
2019-04-10T10:32:21.290Z,33.15
2019-04-10T10:34:47.156Z,36.28
2019-04-10T10:37:12.966Z,36.80
2019-04-10T10:39:39.123Z,36.63
2019-04-10T10:42:07.834Z,36.15
2019-04-10T10:44:38.365Z,35.48
2019-04-10T10:47:04.303Z,34.58
2019-04-10T10:49:30.641Z,42.07
2019-04-10T10:51:57.276Z,48.92
2019-04-10T10:54:23.163Z,34.63
2019-04-10T10:56:48.964Z,33.87
2019-04-10T10:59:15.474Z,35.50
2019-04-10T11:01:42.142Z,34.48
2019-04-10T11:04:08.846Z,33.92
2019-04-10T11:06:35.065Z,36.50
2019-04-10T11:09:05.863Z,33.27
2019-04-10T11:11:32.570Z,31.42
2019-04-10T11:13:58.955Z,33.58
2019-04-10T11:16:25.112Z,31.73
2019-04-10T11:18:53.037Z,29.87
2019-04-10T11:21:18.921Z,27.60
2019-04-10T11:23:49.264Z,30.83
2019-04-10T11:26:20.233Z,33.53
2019-04-10T11:28:43.339Z,30.40
2019-04-10T11:31:09.442Z,30.93
2019-04-10T11:33:35.382Z,29.73
2019-04-10T11:36:01.588Z,29.83
2019-04-10T11:38:27.392Z,28.90
2019-04-10T11:40:57.295Z,28.47
2019-04-10T11:43:21.610Z,28.63
2019-04-10T11:45:52.479Z,31.73
2019-04-10T11:48:18.318Z,29.50
2019-04-10T11:50:44.492Z,29.10
2019-04-10T11:53:10.508Z,27.70
2019-04-10T11:55:43.749Z,28.30
2019-04-10T11:58:07.841Z,45.23
2019-04-10T12:00:45.295Z,34.30
2019-04-10T12:03:08.738Z,26.87
2019-04-10T12:05:38.119Z,28.03
2019-04-10T12:08:27.956Z,26.87
2019-04-10T12:13:00.180Z,28.93
2019-04-10T12:15:26.213Z,28.20
2019-04-10T12:17:52.072Z,26.40
2019-04-10T12:20:18.726Z,26.70
2019-04-10T12:22:46.085Z,26.10
2019-04-10T12:25:14.451Z,27.37
2019-04-10T12:27:41.182Z,25.20
2019-04-10T12:30:09.482Z,26.77
2019-04-10T12:32:35.271Z,26.50
2019-04-10T12:35:01.084Z,23.93
2019-04-10T12:37:27.742Z,24.83
2019-04-10T12:39:55.101Z,24.30
2019-04-10T12:42:21.860Z,24.30
2019-04-10T12:44:47.736Z,24.17
2019-04-10T12:47:13.792Z,23.83
2019-04-10T12:49:39.883Z,23.87
2019-04-10T12:52:06.013Z,22.17
2019-04-10T12:54:31.998Z,23.00
2019-04-10T12:56:58.791Z,24.67
2019-04-10T12:59:25.693Z,23.90
2019-04-10T13:01:51.804Z,23.40
2019-04-10T13:04:18.066Z,23.63
2019-04-10T13:06:44.277Z,24.23
2019-04-10T13:09:12.919Z,25.93
2019-04-10T13:11:38.515Z,23.90
2019-04-10T13:14:04.649Z,22.90
2019-04-10T13:16:30.481Z,25.27
2019-04-10T13:18:59.034Z,23.10
2019-04-10T13:21:24.842Z,24.50
2019-04-10T13:23:50.682Z,22.80
2019-04-10T13:26:17.631Z,24.23
2019-04-10T13:28:43.562Z,24.20
2019-04-10T13:31:09.408Z,24.87
2019-04-10T13:33:36.340Z,25.40
2019-04-10T13:36:05.488Z,25.63
2019-04-10T13:38:33.935Z,24.30
2019-04-10T13:40:59.756Z,24.33
2019-04-10T13:43:25.651Z,24.90
2019-04-10T13:45:54.705Z,24.73
2019-04-10T13:48:20.764Z,22.67
2019-04-10T13:50:50.756Z,23.13
2019-04-10T13:53:17.526Z,22.80
2019-04-10T13:55:44.431Z,22.97
2019-04-10T13:58:10.806Z,21.27
2019-04-10T14:00:40.590Z,24.03
2019-04-10T14:03:06.618Z,23.30
2019-04-10T14:05:34.030Z,23.97
2019-04-10T14:07:59.981Z,22.33
2019-04-10T14:10:27.941Z,21.87
2019-04-10T14:12:53.761Z,21.00
2019-04-10T14:15:20.221Z,21.60
2019-04-10T14:17:46.178Z,21.63
2019-04-10T14:20:15.163Z,20.77
2019-04-10T14:22:43.886Z,19.50
2019-04-10T14:25:15.593Z,22.70
2019-04-10T14:27:42.581Z,20.90
2019-04-10T14:30:19.298Z,23.13
2019-04-10T14:32:45.356Z,22.77
2019-04-10T14:35:11.472Z,22.47
2019-04-10T14:37:37.926Z,21.73
2019-04-10T14:40:06.789Z,21.57
2019-04-10T14:42:32.878Z,22.63
2019-04-10T14:44:59.289Z,22.60
2019-04-10T14:47:25.604Z,22.47
2019-04-10T14:49:53.660Z,23.07
2019-04-10T14:52:19.433Z,23.00
2019-04-10T14:54:46.056Z,20.77
2019-04-10T14:57:12.738Z,23.33
2019-04-10T14:59:38.677Z,24.63
2019-04-10T15:02:06.705Z,44.30
2019-04-10T15:04:33.099Z,33.10
2019-04-10T15:06:59.028Z,24.37
2019-04-10T15:09:26.248Z,22.77
2019-04-10T15:11:53.210Z,28.23
2019-04-10T15:14:19.428Z,33.83
2019-04-10T15:16:54.443Z,43.87
2019-04-10T15:19:13.194Z,28.57
2019-04-10T15:21:39.013Z,25.00
2019-04-10T15:24:04.837Z,25.00
2019-04-10T15:26:30.656Z,29.30
2019-04-10T15:28:56.466Z,26.60
2019-04-10T15:31:24.923Z,23.70
2019-04-10T15:33:50.202Z,22.97
2019-04-10T15:36:16.250Z,23.97
2019-04-10T15:38:42.289Z,20.30
2019-04-10T15:41:08.495Z,22.70
2019-04-10T15:43:35.108Z,24.07
2019-04-10T15:46:00.892Z,22.80
2019-04-10T15:48:27.186Z,21.20
2019-04-10T15:50:53.860Z,19.90
2019-04-10T15:53:20.209Z,19.97
2019-04-10T15:55:46.107Z,19.57
2019-04-10T15:58:12.000Z,20.00
2019-04-10T16:00:38.105Z,18.97
2019-04-10T16:03:07.215Z,20.57
2019-04-10T16:05:33.441Z,18.73
2019-04-10T16:08:02.987Z,20.93
2019-04-10T16:10:30.819Z,20.00
2019-04-10T16:13:01.289Z,21.07
2019-04-10T16:15:29.227Z,18.50
2019-04-10T16:17:56.934Z,19.03
2019-04-10T16:20:25.249Z,19.80
2019-04-10T16:22:56.711Z,19.80
2019-04-10T16:25:25.597Z,18.70
2019-04-10T16:27:51.756Z,19.00
2019-04-10T16:30:19.460Z,18.40
2019-04-10T16:32:45.266Z,19.53
2019-04-10T16:35:13.598Z,18.80
2019-04-10T16:37:39.713Z,19.47
2019-04-10T16:40:08.478Z,18.63
2019-04-10T16:42:34.837Z,19.57
2019-04-10T16:45:01.770Z,19.20
2019-04-10T16:47:28.268Z,21.33
2019-04-10T16:49:55.174Z,20.53
2019-04-10T16:52:21.139Z,19.23
2019-04-10T16:54:51.479Z,20.10
2019-04-10T16:57:18.447Z,19.63
2019-04-10T16:59:44.614Z,20.00
2019-04-10T17:02:11.374Z,20.40
2019-04-10T17:04:37.220Z,21.00
2019-04-10T17:07:03.058Z,19.67
2019-04-10T17:09:29.047Z,49.83
2019-04-10T17:11:56.360Z,20.80
2019-04-10T17:14:23.687Z,21.63
2019-04-10T17:16:50.306Z,22.40
2019-04-10T17:19:16.140Z,21.67
2019-04-10T17:21:42.546Z,20.90
2019-04-10T17:24:09.201Z,22.37
2019-04-10T17:26:35.370Z,21.77
2019-04-10T17:29:01.400Z,21.40
2019-04-10T17:31:27.200Z,19.53
2019-04-10T17:33:54.452Z,20.70
2019-04-10T17:36:20.997Z,20.33
2019-04-10T17:38:46.895Z,22.07
2019-04-10T17:41:12.699Z,22.40
2019-04-10T17:43:38.496Z,20.40
2019-04-10T17:46:04.279Z,21.23
2019-04-10T17:48:31.049Z,20.07
2019-04-10T17:50:57.470Z,19.97
2019-04-10T17:53:23.357Z,20.68
2019-04-10T17:55:49.682Z,21.47
2019-04-10T17:58:19.198Z,21.17
2019-04-10T18:00:51.823Z,21.87
2019-04-10T18:03:18.925Z,21.23
2019-04-10T18:05:45.201Z,21.67
2019-04-10T18:08:11.005Z,22.10
2019-04-10T18:10:44.684Z,21.00
2019-04-10T18:13:05.256Z,21.93
2019-04-10T18:15:32.332Z,22.22
2019-04-10T18:17:59.607Z,20.40
2019-04-10T18:20:26.258Z,21.85
2019-04-10T18:22:53.324Z,20.72
2019-04-10T18:25:20.176Z,19.75
2019-04-10T18:27:46.895Z,24.92
2019-04-10T18:30:14.056Z,22.65
2019-04-10T18:32:40.145Z,21.43
2019-04-10T18:35:06.747Z,24.27
2019-04-10T18:37:32.896Z,22.30
2019-04-10T18:39:59.060Z,21.07
2019-04-10T18:42:26.695Z,21.80
2019-04-10T18:44:53.262Z,22.60
2019-04-10T18:47:19.381Z,21.62
2019-04-10T18:49:48.552Z,20.85
2019-04-10T18:52:15.069Z,21.20
2019-04-10T18:54:41.511Z,23.40
2019-04-10T18:57:07.444Z,22.93
2019-04-10T18:59:35.131Z,23.77
2019-04-10T19:02:12.279Z,23.40
2019-04-10T19:04:49.577Z,22.30
2019-04-10T19:07:15.428Z,23.15
2019-04-10T19:09:41.223Z,22.23
2019-04-10T19:12:07.059Z,23.03
2019-04-10T19:14:36.183Z,23.13
2019-04-10T19:17:00.568Z,23.20
2019-04-10T19:19:26.370Z,23.40
2019-04-10T19:21:52.158Z,25.03
2019-04-10T19:24:19.697Z,24.07
2019-04-10T19:26:45.550Z,21.77
2019-04-10T19:29:11.373Z,22.97
2019-04-10T19:31:40.271Z,22.30
2019-04-10T19:34:07.282Z,23.10
2019-04-10T19:36:34.298Z,21.80
2019-04-10T19:39:00.309Z,20.40
2019-04-10T19:41:32.857Z,21.40
2019-04-10T19:43:54.808Z,22.42
2019-04-10T19:46:21.562Z,20.88
2019-04-10T19:48:50.232Z,22.25
2019-04-10T19:51:16.381Z,20.40
2019-04-10T19:53:42.286Z,20.88
2019-04-10T19:56:09.360Z,21.30
2019-04-10T19:58:36.495Z,20.72
2019-04-10T20:01:05.110Z,21.05
2019-04-10T20:03:32.074Z,23.50
2019-04-10T20:05:57.952Z,23.47
2019-04-10T20:08:24.126Z,22.20
2019-04-10T20:10:49.953Z,22.95
2019-04-10T20:13:16.572Z,23.33
2019-04-10T20:15:42.679Z,23.32
2019-04-10T20:18:08.931Z,24.05
2019-04-10T20:20:35.232Z,23.80
2019-04-10T20:23:02.455Z,21.95
2019-04-10T20:25:28.447Z,21.60
2019-04-10T20:27:54.246Z,22.80
2019-04-10T20:30:22.019Z,22.27
2019-04-10T20:32:47.824Z,21.82
2019-04-10T20:35:13.640Z,22.27
2019-04-10T20:37:39.750Z,21.10
2019-04-10T20:40:05.679Z,21.93
2019-04-10T20:42:32.165Z,21.30
2019-04-10T20:44:58.878Z,19.50
2019-04-10T20:47:25.051Z,19.70
2019-04-10T20:49:51.181Z,18.80
2019-04-10T20:52:17.933Z,18.42
2019-04-10T20:54:44.772Z,21.62
2019-04-10T20:57:11.050Z,19.95
2019-04-10T20:59:37.174Z,22.02
2019-04-10T21:02:04.191Z,19.70
2019-04-10T21:04:30.015Z,19.75
2019-04-10T21:06:58.670Z,19.00
2019-04-10T21:09:25.784Z,20.00
2019-04-10T21:12:02.224Z,19.75
2019-04-10T21:14:23.218Z,18.32
2019-04-10T21:16:49.804Z,19.40
2019-04-10T21:19:16.436Z,19.95
2019-04-10T21:21:43.438Z,17.65
2019-04-10T21:24:09.343Z,17.07
2019-04-10T21:26:35.150Z,17.60
2019-04-10T21:29:02.432Z,18.10
2019-04-10T21:31:40.572Z,17.65
2019-04-10T21:34:14.347Z,16.65
2019-04-10T21:36:41.397Z,16.87
2019-04-10T21:39:07.484Z,18.30
2019-04-10T21:41:34.525Z,20.30
2019-04-10T21:44:02.270Z,17.20
2019-04-10T21:46:28.455Z,18.48
2019-04-10T21:48:55.145Z,19.48
2019-04-10T21:51:21.181Z,16.52
2019-04-10T21:53:47.301Z,15.45
2019-04-10T21:56:13.441Z,15.90
2019-04-10T21:58:39.282Z,13.72
2019-04-10T22:01:06.106Z,16.80
2019-04-10T22:03:32.023Z,14.50
2019-04-10T22:06:16.182Z,14.53
2019-04-10T22:08:50.058Z,14.68
2019-04-10T22:11:17.000Z,13.93
2019-04-10T22:13:42.985Z,12.37
2019-04-10T22:16:11.413Z,12.90
2019-04-10T22:18:37.647Z,13.20
2019-04-10T22:21:04.112Z,12.18
2019-04-10T22:23:30.203Z,13.78
2019-04-10T22:25:56.349Z,13.20
2019-04-10T22:28:23.247Z,12.73
2019-04-10T22:30:50.350Z,13.20
2019-04-10T22:33:16.430Z,13.75
2019-04-10T22:35:42.389Z,15.00
2019-04-10T22:38:13.130Z,14.03
2019-04-10T22:40:40.043Z,14.85
2019-04-10T22:43:07.410Z,13.28
2019-04-10T22:45:33.332Z,13.25
2019-04-10T22:48:00.552Z,13.57
2019-04-10T22:50:27.528Z,13.70
2019-04-10T22:52:54.881Z,11.95
2019-04-10T22:55:21.814Z,13.03
2019-04-10T22:57:48.469Z,11.60
2019-04-10T23:00:16.770Z,9.70
2019-04-10T23:02:42.883Z,10.90
2019-04-10T23:05:09.835Z,11.12
2019-04-10T23:07:35.712Z,9.25
2019-04-10T23:10:02.594Z,10.10
2019-04-10T23:12:28.527Z,9.30
2019-04-10T23:14:55.385Z,9.93
2019-04-10T23:17:21.224Z,8.95
2019-04-10T23:19:47.102Z,9.50
2019-04-10T23:22:13.435Z,9.40
2019-04-10T23:24:40.099Z,9.68
2019-04-10T23:27:06.014Z,8.35
2019-04-10T23:29:32.642Z,9.27
2019-04-10T23:31:58.835Z,8.30
2019-04-10T23:34:25.152Z,9.33
2019-04-10T23:36:50.910Z,9.35
2019-04-10T23:39:16.995Z,8.97
2019-04-10T23:41:42.793Z,8.93
2019-04-10T23:44:09.006Z,8.73
2019-04-10T23:46:34.805Z,8.83
2019-04-10T23:49:01.335Z,9.60
2019-04-10T23:51:29.365Z,8.40
2019-04-10T23:53:55.566Z,8.68
2019-04-10T23:56:21.837Z,8.28
2019-04-10T23:58:49.077Z,9.05
